sensor_id;sensor_type;location;lat;lon;timestamp;P1;durP1;ratioP1;P2;durP2;ratioP2
31732;SDS011;18312;51.486;7.144;2024-02-14T00:00:14;1242.97;;;999.90;;
31732;SDS011;18312;51.486;7.144;2024-02-14T00:02:41;1240.77;;;999.90;;
31732;SDS011;18312;51.486;7.144;2024-02-14T00:05:11;1241.80;;;999.90;;
31732;SDS011;18312;51.486;7.144;2024-02-14T00:07:38;1243.38;;;999.90;;
31732;SDS011;18312;51.486;7.144;2024-02-14T00:10:05;1241.30;;;999.90;;
31732;SDS011;18312;51.486;7.144;2024-02-14T00:12:33;1240.85;;;999.90;;
31732;SDS011;18312;51.486;7.144;2024-02-14T00:15:00;1240.20;;;999.90;;
31732;SDS011;18312;51.486;7.144;2024-02-14T00:17:28;1241.78;;;999.90;;
31732;SDS011;18312;51.486;7.144;2024-02-14T00:19:55;1241.28;;;999.90;;
31732;SDS011;18312;51.486;7.144;2024-02-14T00:22:23;1245.57;;;999.90;;
31732;SDS011;18312;51.486;7.144;2024-02-14T00:24:49;1243.13;;;999.90;;
31732;SDS011;18312;51.486;7.144;2024-02-14T00:27:16;1243.85;;;999.90;;
31732;SDS011;18312;51.486;7.144;2024-02-14T00:29:43;1245.97;;;999.90;;
31732;SDS011;18312;51.486;7.144;2024-02-14T00:32:11;1242.07;;;999.90;;
31732;SDS011;18312;51.486;7.144;2024-02-14T00:34:38;1241.55;;;999.90;;
31732;SDS011;18312;51.486;7.144;2024-02-14T00:37:05;1241.80;;;999.90;;
31732;SDS011;18312;51.486;7.144;2024-02-14T00:39:33;1237.43;;;999.90;;
31732;SDS011;18312;51.486;7.144;2024-02-14T00:42:00;1237.80;;;999.90;;
31732;SDS011;18312;51.486;7.144;2024-02-14T00:44:27;1235.47;;;999.90;;
31732;SDS011;18312;51.486;7.144;2024-02-14T00:46:55;1234.32;;;999.90;;
31732;SDS011;18312;51.486;7.144;2024-02-14T00:49:24;1235.68;;;999.90;;
31732;SDS011;18312;51.486;7.144;2024-02-14T00:51:50;1234.20;;;999.90;;
31732;SDS011;18312;51.486;7.144;2024-02-14T00:54:17;1233.07;;;999.90;;
31732;SDS011;18312;51.486;7.144;2024-02-14T00:56:45;1231.78;;;999.90;;
31732;SDS011;18312;51.486;7.144;2024-02-14T00:59:12;1232.55;;;999.90;;
31732;SDS011;18312;51.486;7.144;2024-02-14T01:01:39;1230.93;;;999.90;;
31732;SDS011;18312;51.486;7.144;2024-02-14T01:04:06;1227.68;;;999.90;;
31732;SDS011;18312;51.486;7.144;2024-02-14T01:06:33;1231.43;;;999.90;;
31732;SDS011;18312;51.486;7.144;2024-02-14T01:08:59;1227.20;;;999.90;;
31732;SDS011;18312;51.486;7.144;2024-02-14T01:11:26;1229.43;;;999.90;;
31732;SDS011;18312;51.486;7.144;2024-02-14T01:13:55;1228.30;;;999.90;;
31732;SDS011;18312;51.486;7.144;2024-02-14T01:16:21;1229.78;;;999.90;;
31732;SDS011;18312;51.486;7.144;2024-02-14T01:18:50;1226.90;;;999.90;;
31732;SDS011;18312;51.486;7.144;2024-02-14T01:21:17;1223.53;;;999.90;;
31732;SDS011;18312;51.486;7.144;2024-02-14T01:23:42;1223.53;;;999.90;;
31732;SDS011;18312;51.486;7.144;2024-02-14T01:26:09;1224.88;;;999.90;;
31732;SDS011;18312;51.486;7.144;2024-02-14T01:28:36;1225.72;;;999.90;;
31732;SDS011;18312;51.486;7.144;2024-02-14T01:31:04;1227.55;;;999.90;;
31732;SDS011;18312;51.486;7.144;2024-02-14T01:33:31;1226.53;;;999.90;;
31732;SDS011;18312;51.486;7.144;2024-02-14T01:35:58;1225.50;;;999.90;;
31732;SDS011;18312;51.486;7.144;2024-02-14T01:38:24;1230.13;;;999.90;;
31732;SDS011;18312;51.486;7.144;2024-02-14T01:40:51;1223.70;;;999.90;;
31732;SDS011;18312;51.486;7.144;2024-02-14T01:43:19;1227.03;;;999.90;;
31732;SDS011;18312;51.486;7.144;2024-02-14T01:45:46;1227.20;;;999.90;;
31732;SDS011;18312;51.486;7.144;2024-02-14T01:48:14;1227.17;;;999.90;;
31732;SDS011;18312;51.486;7.144;2024-02-14T01:50:43;1226.72;;;999.90;;
31732;SDS011;18312;51.486;7.144;2024-02-14T01:53:10;1228.70;;;999.90;;
31732;SDS011;18312;51.486;7.144;2024-02-14T01:55:38;1230.93;;;999.90;;
31732;SDS011;18312;51.486;7.144;2024-02-14T01:58:05;1227.10;;;999.90;;
31732;SDS011;18312;51.486;7.144;2024-02-14T02:00:33;1227.68;;;999.90;;
31732;SDS011;18312;51.486;7.144;2024-02-14T02:03:00;1227.10;;;999.90;;
31732;SDS011;18312;51.486;7.144;2024-02-14T02:05:29;1227.75;;;999.90;;
31732;SDS011;18312;51.486;7.144;2024-02-14T02:07:55;1228.73;;;999.90;;
31732;SDS011;18312;51.486;7.144;2024-02-14T02:10:22;1230.28;;;999.90;;
31732;SDS011;18312;51.486;7.144;2024-02-14T02:12:50;1229.33;;;999.90;;
31732;SDS011;18312;51.486;7.144;2024-02-14T02:15:23;1229.90;;;999.90;;
31732;SDS011;18312;51.486;7.144;2024-02-14T02:17:50;1230.18;;;999.90;;
31732;SDS011;18312;51.486;7.144;2024-02-14T02:20:18;1233.50;;;999.90;;
31732;SDS011;18312;51.486;7.144;2024-02-14T02:22:47;1232.75;;;999.90;;
31732;SDS011;18312;51.486;7.144;2024-02-14T02:25:14;1235.00;;;999.90;;
31732;SDS011;18312;51.486;7.144;2024-02-14T02:27:41;1235.03;;;999.90;;
31732;SDS011;18312;51.486;7.144;2024-02-14T02:30:08;1236.63;;;999.90;;
31732;SDS011;18312;51.486;7.144;2024-02-14T02:32:35;1238.72;;;999.90;;
31732;SDS011;18312;51.486;7.144;2024-02-14T02:35:03;1235.90;;;999.90;;
31732;SDS011;18312;51.486;7.144;2024-02-14T02:37:30;1236.55;;;999.90;;
31732;SDS011;18312;51.486;7.144;2024-02-14T02:39:58;1236.40;;;999.90;;
31732;SDS011;18312;51.486;7.144;2024-02-14T02:42:25;1239.78;;;999.90;;
31732;SDS011;18312;51.486;7.144;2024-02-14T02:44:52;1235.85;;;999.90;;
31732;SDS011;18312;51.486;7.144;2024-02-14T02:47:19;1238.20;;;999.90;;
31732;SDS011;18312;51.486;7.144;2024-02-14T02:49:45;1239.17;;;999.90;;
31732;SDS011;18312;51.486;7.144;2024-02-14T02:52:12;1241.03;;;999.90;;
31732;SDS011;18312;51.486;7.144;2024-02-14T02:54:39;1242.30;;;999.90;;
31732;SDS011;18312;51.486;7.144;2024-02-14T02:57:10;1243.90;;;999.90;;
31732;SDS011;18312;51.486;7.144;2024-02-14T02:59:37;1244.68;;;999.90;;
31732;SDS011;18312;51.486;7.144;2024-02-14T03:02:07;1244.55;;;999.90;;
31732;SDS011;18312;51.486;7.144;2024-02-14T03:04:36;1246.63;;;999.90;;
31732;SDS011;18312;51.486;7.144;2024-02-14T03:07:03;1246.53;;;999.90;;
31732;SDS011;18312;51.486;7.144;2024-02-14T03:09:33;1247.65;;;999.90;;
31732;SDS011;18312;51.486;7.144;2024-02-14T03:12:00;1247.07;;;999.90;;
31732;SDS011;18312;51.486;7.144;2024-02-14T03:14:29;1248.90;;;999.90;;
31732;SDS011;18312;51.486;7.144;2024-02-14T03:16:57;1250.88;;;999.90;;
31732;SDS011;18312;51.486;7.144;2024-02-14T03:19:25;1252.10;;;999.90;;
31732;SDS011;18312;51.486;7.144;2024-02-14T03:21:52;1251.83;;;999.90;;
31732;SDS011;18312;51.486;7.144;2024-02-14T03:24:19;1252.63;;;999.90;;
31732;SDS011;18312;51.486;7.144;2024-02-14T03:26:46;1250.95;;;999.90;;
31732;SDS011;18312;51.486;7.144;2024-02-14T03:29:16;1251.80;;;999.90;;
31732;SDS011;18312;51.486;7.144;2024-02-14T03:31:45;1252.22;;;999.90;;
31732;SDS011;18312;51.486;7.144;2024-02-14T03:34:12;1250.22;;;999.90;;
31732;SDS011;18312;51.486;7.144;2024-02-14T03:36:39;1246.72;;;999.90;;
31732;SDS011;18312;51.486;7.144;2024-02-14T03:39:06;1247.97;;;999.90;;
31732;SDS011;18312;51.486;7.144;2024-02-14T03:41:33;1249.57;;;999.90;;
31732;SDS011;18312;51.486;7.144;2024-02-14T03:44:00;1248.78;;;999.90;;
31732;SDS011;18312;51.486;7.144;2024-02-14T03:46:28;1250.93;;;999.90;;
31732;SDS011;18312;51.486;7.144;2024-02-14T03:48:56;1249.72;;;999.90;;
31732;SDS011;18312;51.486;7.144;2024-02-14T03:51:23;1247.82;;;999.90;;
31732;SDS011;18312;51.486;7.144;2024-02-14T03:53:50;1247.33;;;999.90;;
31732;SDS011;18312;51.486;7.144;2024-02-14T03:56:17;1246.77;;;999.90;;
31732;SDS011;18312;51.486;7.144;2024-02-14T03:58:43;1245.70;;;999.90;;
31732;SDS011;18312;51.486;7.144;2024-02-14T04:01:12;1243.50;;;999.90;;
31732;SDS011;18312;51.486;7.144;2024-02-14T04:03:38;1246.95;;;999.90;;
31732;SDS011;18312;51.486;7.144;2024-02-14T04:06:07;1246.22;;;999.90;;
31732;SDS011;18312;51.486;7.144;2024-02-14T04:08:33;1246.30;;;999.90;;
31732;SDS011;18312;51.486;7.144;2024-02-14T04:11:00;1244.93;;;999.90;;
31732;SDS011;18312;51.486;7.144;2024-02-14T04:13:27;1246.13;;;999.90;;
31732;SDS011;18312;51.486;7.144;2024-02-14T04:15:53;1247.35;;;999.90;;
31732;SDS011;18312;51.486;7.144;2024-02-14T04:18:20;1245.85;;;999.90;;
31732;SDS011;18312;51.486;7.144;2024-02-14T04:20:47;1248.30;;;999.90;;
31732;SDS011;18312;51.486;7.144;2024-02-14T04:23:15;1246.95;;;999.90;;
31732;SDS011;18312;51.486;7.144;2024-02-14T04:25:42;1248.97;;;999.90;;
31732;SDS011;18312;51.486;7.144;2024-02-14T04:28:09;1249.32;;;999.90;;
31732;SDS011;18312;51.486;7.144;2024-02-14T04:30:36;1249.95;;;999.90;;
31732;SDS011;18312;51.486;7.144;2024-02-14T04:33:03;1248.63;;;999.90;;
31732;SDS011;18312;51.486;7.144;2024-02-14T04:35:31;1250.53;;;999.90;;
31732;SDS011;18312;51.486;7.144;2024-02-14T04:37:58;1250.95;;;999.90;;
31732;SDS011;18312;51.486;7.144;2024-02-14T04:40:27;1252.60;;;999.90;;
31732;SDS011;18312;51.486;7.144;2024-02-14T04:42:54;1253.70;;;999.90;;
31732;SDS011;18312;51.486;7.144;2024-02-14T04:45:20;1252.05;;;999.90;;
31732;SDS011;18312;51.486;7.144;2024-02-14T04:47:47;1254.50;;;999.90;;
31732;SDS011;18312;51.486;7.144;2024-02-14T04:50:14;1254.60;;;999.90;;
31732;SDS011;18312;51.486;7.144;2024-02-14T04:52:40;1256.70;;;999.90;;
31732;SDS011;18312;51.486;7.144;2024-02-14T04:55:07;1257.47;;;999.90;;
31732;SDS011;18312;51.486;7.144;2024-02-14T04:57:36;1259.03;;;999.90;;
31732;SDS011;18312;51.486;7.144;2024-02-14T05:00:03;1257.90;;;999.90;;
31732;SDS011;18312;51.486;7.144;2024-02-14T05:02:30;1259.55;;;999.90;;
31732;SDS011;18312;51.486;7.144;2024-02-14T05:04:57;1260.18;;;999.90;;
31732;SDS011;18312;51.486;7.144;2024-02-14T05:07:23;1259.25;;;999.90;;
31732;SDS011;18312;51.486;7.144;2024-02-14T05:09:50;1261.43;;;999.90;;
31732;SDS011;18312;51.486;7.144;2024-02-14T05:12:17;1257.35;;;999.90;;
31732;SDS011;18312;51.486;7.144;2024-02-14T05:14:46;1261.13;;;999.90;;
31732;SDS011;18312;51.486;7.144;2024-02-14T05:17:12;1260.30;;;999.90;;
31732;SDS011;18312;51.486;7.144;2024-02-14T05:19:41;1260.57;;;999.90;;
31732;SDS011;18312;51.486;7.144;2024-02-14T05:22:07;1259.88;;;999.90;;
31732;SDS011;18312;51.486;7.144;2024-02-14T05:24:34;1263.78;;;999.90;;
31732;SDS011;18312;51.486;7.144;2024-02-14T05:27:02;1260.10;;;999.90;;
31732;SDS011;18312;51.486;7.144;2024-02-14T05:29:30;1262.93;;;999.90;;
31732;SDS011;18312;51.486;7.144;2024-02-14T05:31:58;1263.53;;;999.90;;
31732;SDS011;18312;51.486;7.144;2024-02-14T05:34:24;1264.57;;;999.90;;
31732;SDS011;18312;51.486;7.144;2024-02-14T05:36:51;1263.72;;;999.90;;
31732;SDS011;18312;51.486;7.144;2024-02-14T05:39:18;1263.47;;;999.90;;
31732;SDS011;18312;51.486;7.144;2024-02-14T05:41:45;1265.22;;;999.90;;
31732;SDS011;18312;51.486;7.144;2024-02-14T05:44:11;1267.45;;;999.90;;
31732;SDS011;18312;51.486;7.144;2024-02-14T05:46:38;1266.25;;;999.90;;
31732;SDS011;18312;51.486;7.144;2024-02-14T05:49:07;1263.88;;;999.90;;
31732;SDS011;18312;51.486;7.144;2024-02-14T05:51:34;1265.25;;;999.90;;
31732;SDS011;18312;51.486;7.144;2024-02-14T05:54:01;1264.50;;;999.90;;
31732;SDS011;18312;51.486;7.144;2024-02-14T05:56:28;1265.80;;;999.90;;
31732;SDS011;18312;51.486;7.144;2024-02-14T05:58:55;1267.10;;;999.90;;
31732;SDS011;18312;51.486;7.144;2024-02-14T06:01:21;1262.70;;;999.90;;
31732;SDS011;18312;51.486;7.144;2024-02-14T06:03:48;1267.10;;;999.90;;
31732;SDS011;18312;51.486;7.144;2024-02-14T06:06:16;1264.78;;;999.90;;
31732;SDS011;18312;51.486;7.144;2024-02-14T06:08:43;1265.85;;;999.90;;
31732;SDS011;18312;51.486;7.144;2024-02-14T06:11:10;1264.25;;;999.90;;
31732;SDS011;18312;51.486;7.144;2024-02-14T06:13:37;1266.18;;;999.90;;
31732;SDS011;18312;51.486;7.144;2024-02-14T06:16:04;1264.22;;;999.90;;
31732;SDS011;18312;51.486;7.144;2024-02-14T06:18:33;1266.72;;;999.90;;
31732;SDS011;18312;51.486;7.144;2024-02-14T06:21:00;1268.03;;;999.90;;
31732;SDS011;18312;51.486;7.144;2024-02-14T06:23:28;1268.40;;;999.90;;
31732;SDS011;18312;51.486;7.144;2024-02-14T06:25:56;1265.70;;;999.90;;
31732;SDS011;18312;51.486;7.144;2024-02-14T06:28:22;1264.43;;;999.90;;
31732;SDS011;18312;51.486;7.144;2024-02-14T06:30:49;1266.60;;;999.90;;
31732;SDS011;18312;51.486;7.144;2024-02-14T06:33:16;1266.53;;;999.90;;
31732;SDS011;18312;51.486;7.144;2024-02-14T06:35:43;1270.53;;;999.90;;
31732;SDS011;18312;51.486;7.144;2024-02-14T06:38:10;1267.80;;;999.90;;
31732;SDS011;18312;51.486;7.144;2024-02-14T06:40:38;1265.95;;;999.90;;
31732;SDS011;18312;51.486;7.144;2024-02-14T06:43:05;1269.40;;;999.90;;
31732;SDS011;18312;51.486;7.144;2024-02-14T06:45:32;1271.82;;;999.90;;
31732;SDS011;18312;51.486;7.144;2024-02-14T06:47:59;1265.60;;;999.90;;
31732;SDS011;18312;51.486;7.144;2024-02-14T06:50:26;1262.95;;;999.90;;
31732;SDS011;18312;51.486;7.144;2024-02-14T06:52:54;1267.72;;;999.90;;
31732;SDS011;18312;51.486;7.144;2024-02-14T06:55:24;1266.88;;;999.90;;
31732;SDS011;18312;51.486;7.144;2024-02-14T06:57:52;1268.63;;;999.90;;
31732;SDS011;18312;51.486;7.144;2024-02-14T07:00:19;1269.85;;;999.90;;
31732;SDS011;18312;51.486;7.144;2024-02-14T07:02:46;1268.40;;;999.90;;
31732;SDS011;18312;51.486;7.144;2024-02-14T07:05:13;1267.60;;;999.90;;
31732;SDS011;18312;51.486;7.144;2024-02-14T07:07:40;1269.63;;;999.90;;
31732;SDS011;18312;51.486;7.144;2024-02-14T07:10:07;1270.78;;;999.90;;
31732;SDS011;18312;51.486;7.144;2024-02-14T07:12:34;1272.53;;;999.90;;
31732;SDS011;18312;51.486;7.144;2024-02-14T07:15:03;1272.25;;;999.90;;
31732;SDS011;18312;51.486;7.144;2024-02-14T07:17:31;1272.05;;;999.90;;
31732;SDS011;18312;51.486;7.144;2024-02-14T07:19:58;1273.10;;;999.90;;
31732;SDS011;18312;51.486;7.144;2024-02-14T07:22:24;1274.05;;;999.90;;
31732;SDS011;18312;51.486;7.144;2024-02-14T07:24:51;1274.53;;;999.90;;
31732;SDS011;18312;51.486;7.144;2024-02-14T07:27:19;1274.95;;;999.90;;
31732;SDS011;18312;51.486;7.144;2024-02-14T07:29:46;1277.10;;;999.90;;
31732;SDS011;18312;51.486;7.144;2024-02-14T07:32:15;1276.25;;;999.90;;
31732;SDS011;18312;51.486;7.144;2024-02-14T07:34:42;1277.28;;;999.90;;
31732;SDS011;18312;51.486;7.144;2024-02-14T07:37:08;1275.90;;;999.90;;
31732;SDS011;18312;51.486;7.144;2024-02-14T07:39:35;1277.60;;;999.90;;
31732;SDS011;18312;51.486;7.144;2024-02-14T07:42:02;1276.03;;;999.90;;
31732;SDS011;18312;51.486;7.144;2024-02-14T07:44:30;1278.55;;;999.90;;
31732;SDS011;18312;51.486;7.144;2024-02-14T07:46:57;1278.10;;;999.90;;
31732;SDS011;18312;51.486;7.144;2024-02-14T07:49:25;1278.13;;;999.90;;
31732;SDS011;18312;51.486;7.144;2024-02-14T07:51:52;1277.32;;;999.90;;
31732;SDS011;18312;51.486;7.144;2024-02-14T07:54:20;1276.57;;;999.90;;
31732;SDS011;18312;51.486;7.144;2024-02-14T07:56:47;1275.65;;;999.90;;
31732;SDS011;18312;51.486;7.144;2024-02-14T07:59:13;1278.18;;;999.90;;
31732;SDS011;18312;51.486;7.144;2024-02-14T08:01:41;1278.15;;;999.90;;
31732;SDS011;18312;51.486;7.144;2024-02-14T08:04:08;1281.10;;;999.90;;
31732;SDS011;18312;51.486;7.144;2024-02-14T08:06:36;1278.38;;;999.90;;
31732;SDS011;18312;51.486;7.144;2024-02-14T08:09:03;1278.95;;;999.90;;
31732;SDS011;18312;51.486;7.144;2024-02-14T08:11:34;1280.70;;;999.90;;
31732;SDS011;18312;51.486;7.144;2024-02-14T08:14:01;1280.97;;;999.90;;
31732;SDS011;18312;51.486;7.144;2024-02-14T08:16:28;1281.27;;;999.90;;
31732;SDS011;18312;51.486;7.144;2024-02-14T08:18:54;1282.20;;;999.90;;
31732;SDS011;18312;51.486;7.144;2024-02-14T08:21:24;1283.80;;;999.90;;
31732;SDS011;18312;51.486;7.144;2024-02-14T08:23:52;1286.45;;;999.90;;
31732;SDS011;18312;51.486;7.144;2024-02-14T08:26:19;1285.57;;;999.90;;
31732;SDS011;18312;51.486;7.144;2024-02-14T08:28:47;1290.57;;;999.90;;
31732;SDS011;18312;51.486;7.144;2024-02-14T08:31:14;1291.03;;;999.90;;
31732;SDS011;18312;51.486;7.144;2024-02-14T08:33:41;1293.85;;;999.90;;
31732;SDS011;18312;51.486;7.144;2024-02-14T08:36:08;1296.97;;;999.90;;
31732;SDS011;18312;51.486;7.144;2024-02-14T08:38:34;1294.13;;;999.90;;
31732;SDS011;18312;51.486;7.144;2024-02-14T08:41:03;1296.15;;;999.90;;
31732;SDS011;18312;51.486;7.144;2024-02-14T08:43:30;1297.50;;;999.90;;
31732;SDS011;18312;51.486;7.144;2024-02-14T08:45:56;1296.75;;;999.90;;
31732;SDS011;18312;51.486;7.144;2024-02-14T08:48:23;1297.05;;;999.90;;
31732;SDS011;18312;51.486;7.144;2024-02-14T08:50:52;1299.13;;;999.90;;
31732;SDS011;18312;51.486;7.144;2024-02-14T08:53:19;1300.53;;;999.90;;
31732;SDS011;18312;51.486;7.144;2024-02-14T08:55:46;1299.97;;;999.90;;
31732;SDS011;18312;51.486;7.144;2024-02-14T08:58:16;1300.63;;;999.90;;
31732;SDS011;18312;51.486;7.144;2024-02-14T09:00:43;1300.28;;;999.90;;
31732;SDS011;18312;51.486;7.144;2024-02-14T09:03:10;1296.97;;;999.90;;
31732;SDS011;18312;51.486;7.144;2024-02-14T09:05:37;1298.88;;;999.90;;
31732;SDS011;18312;51.486;7.144;2024-02-14T09:08:04;1299.40;;;999.90;;
31732;SDS011;18312;51.486;7.144;2024-02-14T09:10:31;1300.63;;;999.90;;
31732;SDS011;18312;51.486;7.144;2024-02-14T09:12:58;1298.50;;;999.90;;
31732;SDS011;18312;51.486;7.144;2024-02-14T09:15:27;1299.10;;;999.90;;
31732;SDS011;18312;51.486;7.144;2024-02-14T09:17:56;1300.38;;;999.90;;
31732;SDS011;18312;51.486;7.144;2024-02-14T09:20:22;1297.28;;;999.90;;
31732;SDS011;18312;51.486;7.144;2024-02-14T09:22:49;1302.70;;;999.90;;
31732;SDS011;18312;51.486;7.144;2024-02-14T09:25:16;1303.33;;;999.90;;
31732;SDS011;18312;51.486;7.144;2024-02-14T09:27:43;1304.30;;;999.90;;
31732;SDS011;18312;51.486;7.144;2024-02-14T09:30:12;1304.20;;;999.90;;
31732;SDS011;18312;51.486;7.144;2024-02-14T09:32:40;1304.18;;;999.90;;
31732;SDS011;18312;51.486;7.144;2024-02-14T09:35:07;1303.30;;;999.90;;
31732;SDS011;18312;51.486;7.144;2024-02-14T09:37:35;1304.15;;;999.90;;
31732;SDS011;18312;51.486;7.144;2024-02-14T09:40:03;1306.70;;;999.90;;
31732;SDS011;18312;51.486;7.144;2024-02-14T09:42:32;1304.32;;;999.90;;
31732;SDS011;18312;51.486;7.144;2024-02-14T09:45:05;1304.32;;;999.90;;
31732;SDS011;18312;51.486;7.144;2024-02-14T09:47:33;1298.17;;;999.90;;
31732;SDS011;18312;51.486;7.144;2024-02-14T09:50:01;1297.47;;;999.90;;
31732;SDS011;18312;51.486;7.144;2024-02-14T09:52:31;1299.30;;;999.90;;
31732;SDS011;18312;51.486;7.144;2024-02-14T09:54:59;1297.80;;;999.90;;
31732;SDS011;18312;51.486;7.144;2024-02-14T09:57:28;1294.93;;;999.90;;
31732;SDS011;18312;51.486;7.144;2024-02-14T09:59:56;1292.88;;;999.90;;
31732;SDS011;18312;51.486;7.144;2024-02-14T10:02:23;1291.00;;;999.90;;
31732;SDS011;18312;51.486;7.144;2024-02-14T10:04:50;1290.32;;;999.90;;
31732;SDS011;18312;51.486;7.144;2024-02-14T10:07:18;1288.93;;;999.90;;
31732;SDS011;18312;51.486;7.144;2024-02-14T10:09:45;1290.57;;;999.90;;
31732;SDS011;18312;51.486;7.144;2024-02-14T10:12:12;1290.85;;;999.90;;
31732;SDS011;18312;51.486;7.144;2024-02-14T10:14:38;1291.43;;;999.90;;
31732;SDS011;18312;51.486;7.144;2024-02-14T10:17:05;1290.75;;;999.90;;
31732;SDS011;18312;51.486;7.144;2024-02-14T10:19:32;1295.40;;;999.90;;
31732;SDS011;18312;51.486;7.144;2024-02-14T10:22:00;1294.55;;;999.90;;
31732;SDS011;18312;51.486;7.144;2024-02-14T10:24:30;1295.70;;;999.90;;
31732;SDS011;18312;51.486;7.144;2024-02-14T10:26:58;1298.32;;;999.90;;
31732;SDS011;18312;51.486;7.144;2024-02-14T10:29:25;1297.03;;;999.90;;
31732;SDS011;18312;51.486;7.144;2024-02-14T10:31:52;1298.55;;;999.90;;
31732;SDS011;18312;51.486;7.144;2024-02-14T10:34:19;1298.77;;;999.90;;
31732;SDS011;18312;51.486;7.144;2024-02-14T10:36:52;1301.60;;;999.90;;
31732;SDS011;18312;51.486;7.144;2024-02-14T10:39:19;1300.63;;;999.90;;
31732;SDS011;18312;51.486;7.144;2024-02-14T10:41:49;1304.97;;;999.90;;
31732;SDS011;18312;51.486;7.144;2024-02-14T10:44:15;1306.67;;;999.90;;
31732;SDS011;18312;51.486;7.144;2024-02-14T10:46:42;1304.88;;;999.90;;
31732;SDS011;18312;51.486;7.144;2024-02-14T10:49:12;1303.53;;;999.90;;
31732;SDS011;18312;51.486;7.144;2024-02-14T10:51:42;1310.20;;;999.90;;
31732;SDS011;18312;51.486;7.144;2024-02-14T10:54:13;1306.80;;;999.90;;
31732;SDS011;18312;51.486;7.144;2024-02-14T10:56:42;1300.32;;;999.90;;
31732;SDS011;18312;51.486;7.144;2024-02-14T10:59:16;1300.65;;;999.90;;
31732;SDS011;18312;51.486;7.144;2024-02-14T11:01:45;1298.40;;;999.90;;
31732;SDS011;18312;51.486;7.144;2024-02-14T11:04:14;1297.88;;;999.90;;
31732;SDS011;18312;51.486;7.144;2024-02-14T11:06:45;1301.93;;;999.90;;
31732;SDS011;18312;51.486;7.144;2024-02-14T11:09:14;1301.13;;;999.90;;
31732;SDS011;18312;51.486;7.144;2024-02-14T11:11:41;1298.40;;;999.90;;
31732;SDS011;18312;51.486;7.144;2024-02-14T11:14:09;1298.95;;;999.90;;
31732;SDS011;18312;51.486;7.144;2024-02-14T11:16:38;1301.63;;;999.90;;
31732;SDS011;18312;51.486;7.144;2024-02-14T11:19:05;1299.30;;;999.90;;
31732;SDS011;18312;51.486;7.144;2024-02-14T11:21:35;1301.73;;;999.90;;
31732;SDS011;18312;51.486;7.144;2024-02-14T11:24:05;1302.40;;;999.90;;
31732;SDS011;18312;51.486;7.144;2024-02-14T11:26:39;1300.70;;;999.90;;
31732;SDS011;18312;51.486;7.144;2024-02-14T11:29:13;1304.00;;;999.90;;
31732;SDS011;18312;51.486;7.144;2024-02-14T11:31:42;1302.90;;;999.90;;
31732;SDS011;18312;51.486;7.144;2024-02-14T11:34:11;1300.97;;;999.90;;
31732;SDS011;18312;51.486;7.144;2024-02-14T11:36:38;1304.07;;;999.90;;
31732;SDS011;18312;51.486;7.144;2024-02-14T11:39:07;1303.97;;;999.90;;
31732;SDS011;18312;51.486;7.144;2024-02-14T11:41:34;1301.65;;;999.90;;
31732;SDS011;18312;51.486;7.144;2024-02-14T11:44:02;1300.43;;;999.90;;
31732;SDS011;18312;51.486;7.144;2024-02-14T11:46:30;1305.32;;;999.90;;
31732;SDS011;18312;51.486;7.144;2024-02-14T11:48:59;1303.68;;;999.90;;
31732;SDS011;18312;51.486;7.144;2024-02-14T11:51:27;1301.10;;;999.90;;
31732;SDS011;18312;51.486;7.144;2024-02-14T11:53:55;1309.18;;;999.90;;
31732;SDS011;18312;51.486;7.144;2024-02-14T11:56:22;1307.60;;;999.90;;
31732;SDS011;18312;51.486;7.144;2024-02-14T11:58:51;1314.45;;;999.90;;
31732;SDS011;18312;51.486;7.144;2024-02-14T12:01:18;1306.10;;;999.90;;
31732;SDS011;18312;51.486;7.144;2024-02-14T12:03:44;1312.43;;;999.90;;
31732;SDS011;18312;51.486;7.144;2024-02-14T12:06:13;1314.20;;;999.90;;
31732;SDS011;18312;51.486;7.144;2024-02-14T12:08:40;1314.75;;;999.90;;
31732;SDS011;18312;51.486;7.144;2024-02-14T12:11:07;1313.23;;;999.90;;
31732;SDS011;18312;51.486;7.144;2024-02-14T12:13:34;1313.13;;;999.90;;
31732;SDS011;18312;51.486;7.144;2024-02-14T12:16:03;1316.50;;;999.90;;
31732;SDS011;18312;51.486;7.144;2024-02-14T12:18:32;1317.90;;;999.90;;
31732;SDS011;18312;51.486;7.144;2024-02-14T12:21:05;1319.40;;;999.90;;
31732;SDS011;18312;51.486;7.144;2024-02-14T12:23:35;1322.43;;;999.90;;
31732;SDS011;18312;51.486;7.144;2024-02-14T12:26:02;1316.50;;;999.90;;
31732;SDS011;18312;51.486;7.144;2024-02-14T12:28:29;1317.43;;;999.90;;
31732;SDS011;18312;51.486;7.144;2024-02-14T12:30:57;1317.35;;;999.90;;
31732;SDS011;18312;51.486;7.144;2024-02-14T12:33:24;1319.65;;;999.90;;
31732;SDS011;18312;51.486;7.144;2024-02-14T12:35:52;1319.05;;;999.90;;
31732;SDS011;18312;51.486;7.144;2024-02-14T12:38:21;1317.47;;;999.90;;
31732;SDS011;18312;51.486;7.144;2024-02-14T12:40:49;1318.95;;;999.90;;
31732;SDS011;18312;51.486;7.144;2024-02-14T12:43:19;1322.25;;;999.90;;
31732;SDS011;18312;51.486;7.144;2024-02-14T12:45:45;1318.53;;;999.90;;
31732;SDS011;18312;51.486;7.144;2024-02-14T12:48:12;1321.93;;;999.90;;
31732;SDS011;18312;51.486;7.144;2024-02-14T12:50:47;1324.07;;;999.90;;
31732;SDS011;18312;51.486;7.144;2024-02-14T12:53:15;1318.40;;;999.90;;
31732;SDS011;18312;51.486;7.144;2024-02-14T12:55:41;1324.97;;;999.90;;
31732;SDS011;18312;51.486;7.144;2024-02-14T12:58:09;1323.05;;;999.90;;
31732;SDS011;18312;51.486;7.144;2024-02-14T13:00:36;1323.18;;;999.90;;
31732;SDS011;18312;51.486;7.144;2024-02-14T13:03:04;1321.30;;;999.90;;
31732;SDS011;18312;51.486;7.144;2024-02-14T13:05:31;1318.75;;;999.90;;
31732;SDS011;18312;51.486;7.144;2024-02-14T13:07:58;1320.03;;;999.90;;
31732;SDS011;18312;51.486;7.144;2024-02-14T13:10:26;1323.20;;;999.90;;
31732;SDS011;18312;51.486;7.144;2024-02-14T13:12:52;1319.38;;;999.90;;
31732;SDS011;18312;51.486;7.144;2024-02-14T13:15:21;1319.70;;;999.90;;
31732;SDS011;18312;51.486;7.144;2024-02-14T13:17:47;1318.10;;;999.90;;
31732;SDS011;18312;51.486;7.144;2024-02-14T13:20:20;1315.55;;;999.90;;
31732;SDS011;18312;51.486;7.144;2024-02-14T13:22:50;1316.95;;;999.90;;
31732;SDS011;18312;51.486;7.144;2024-02-14T13:25:20;1318.72;;;999.90;;
31732;SDS011;18312;51.486;7.144;2024-02-14T13:27:52;1318.97;;;999.90;;
31732;SDS011;18312;51.486;7.144;2024-02-14T13:30:21;1324.05;;;999.90;;
31732;SDS011;18312;51.486;7.144;2024-02-14T13:32:48;1319.13;;;999.90;;
31732;SDS011;18312;51.486;7.144;2024-02-14T13:35:15;1322.53;;;999.90;;
31732;SDS011;18312;51.486;7.144;2024-02-14T13:37:42;1317.63;;;999.90;;
31732;SDS011;18312;51.486;7.144;2024-02-14T13:40:10;1319.88;;;999.90;;
31732;SDS011;18312;51.486;7.144;2024-02-14T13:42:37;1318.10;;;999.90;;
31732;SDS011;18312;51.486;7.144;2024-02-14T13:45:04;1321.88;;;999.90;;